createdAt,value
2022-11-28T00:02:20.128Z,11.60
2022-11-28T00:04:54.105Z,11.40
2022-11-28T00:07:22.340Z,11.30
2022-11-28T00:09:50.828Z,11.20
2022-11-28T00:12:19.841Z,11.30
2022-11-28T00:14:49.959Z,11.20
2022-11-28T00:17:18.349Z,11.40
2022-11-28T00:19:47.314Z,11.40
2022-11-28T00:22:16.705Z,11.30
2022-11-28T00:27:30.286Z,11.30
2022-11-28T00:29:58.392Z,11.20
2022-11-28T00:32:29.985Z,11.20
2022-11-28T00:34:58.180Z,10.60
2022-11-28T00:37:30.809Z,10.50
2022-11-28T00:39:58.816Z,10.60
2022-11-28T00:42:26.815Z,10.50
2022-11-28T00:44:55.865Z,10.50
2022-11-28T00:47:23.857Z,10.00
2022-11-28T00:49:52.306Z,10.10
2022-11-28T00:52:33.079Z,9.60
2022-11-28T00:55:01.163Z,9.60
2022-11-28T00:57:29.156Z,9.70
2022-11-28T00:59:58.254Z,10.00
2022-11-28T01:02:28.360Z,10.20
2022-11-28T01:04:56.992Z,10.30
2022-11-28T01:07:28.499Z,9.90
2022-11-28T01:09:58.228Z,9.90
2022-11-28T01:12:27.194Z,10.20
2022-11-28T01:15:12.011Z,10.00
2022-11-28T01:17:45.847Z,10.30
2022-11-28T01:20:17.957Z,10.30
2022-11-28T01:22:53.396Z,10.00
2022-11-28T01:25:30.522Z,9.60
2022-11-28T01:27:59.985Z,9.90
2022-11-28T01:30:30.863Z,9.80
2022-11-28T01:32:59.852Z,10.00
2022-11-28T01:35:27.914Z,10.30
2022-11-28T01:37:56.888Z,10.40
2022-11-28T01:40:26.485Z,10.20
2022-11-28T01:42:55.440Z,10.10
2022-11-28T01:45:26.444Z,10.30
2022-11-28T01:47:58.330Z,10.40
2022-11-28T01:50:27.583Z,10.20
2022-11-28T01:53:01.050Z,10.30
2022-11-28T01:55:36.067Z,10.00
2022-11-28T01:58:04.625Z,10.00
2022-11-28T02:00:35.030Z,9.90
2022-11-28T02:03:09.129Z,9.80
2022-11-28T02:05:38.453Z,9.60
2022-11-28T02:08:07.724Z,9.70
2022-11-28T02:10:49.788Z,9.80
2022-11-28T02:13:33.554Z,9.90
2022-11-28T02:16:17.683Z,9.90
2022-11-28T02:18:59.521Z,9.80
2022-11-28T02:21:41.853Z,9.80
2022-11-28T02:24:49.375Z,9.70
2022-11-28T02:27:50.962Z,9.90
2022-11-28T02:30:24.392Z,9.80
2022-11-28T02:33:15.994Z,9.90
2022-11-28T02:35:55.026Z,9.80
2022-11-28T02:38:38.782Z,9.70
2022-11-28T02:41:13.530Z,9.60
2022-11-28T02:43:49.480Z,10.00
2022-11-28T02:46:26.081Z,10.00
2022-11-28T02:49:01.092Z,10.10
2022-11-28T02:51:35.464Z,10.40
2022-11-28T02:54:05.250Z,10.80
2022-11-28T02:56:40.636Z,10.80
2022-11-28T02:59:32.524Z,10.90
2022-11-28T03:02:02.272Z,10.80
2022-11-28T03:04:41.619Z,10.90
2022-11-28T03:07:24.257Z,10.80
2022-11-28T03:10:17.894Z,10.40
2022-11-28T03:12:57.606Z,10.10
2022-11-28T03:15:37.887Z,10.20
2022-11-28T03:18:13.545Z,10.20
2022-11-28T03:20:49.346Z,10.50
2022-11-28T03:23:22.897Z,10.40
2022-11-28T03:25:59.357Z,10.30
2022-11-28T03:28:32.420Z,10.40
2022-11-28T03:31:04.320Z,10.50
2022-11-28T03:33:43.446Z,10.70
2022-11-28T03:36:23.887Z,10.80
2022-11-28T03:38:57.962Z,11.10
2022-11-28T03:41:33.033Z,11.30
2022-11-28T03:44:03.311Z,10.90
2022-11-28T03:46:40.200Z,10.20
2022-11-28T03:49:12.658Z,10.10
2022-11-28T03:51:48.173Z,10.30
2022-11-28T03:54:20.580Z,10.40
2022-11-28T03:57:02.033Z,10.50
2022-11-28T03:59:34.208Z,10.40
2022-11-28T04:02:06.683Z,10.30
2022-11-28T04:04:43.299Z,10.20
2022-11-28T04:07:23.217Z,10.10
2022-11-28T04:10:01.384Z,10.30
2022-11-28T04:12:40.953Z,10.20
2022-11-28T04:15:18.395Z,10.50
2022-11-28T04:17:53.333Z,10.60
2022-11-28T04:20:33.778Z,10.60
2022-11-28T04:23:10.310Z,10.70
2022-11-28T04:25:46.134Z,10.10
2022-11-28T04:28:19.869Z,10.20
2022-11-28T04:30:53.166Z,10.40
2022-11-28T04:33:24.790Z,10.60
2022-11-28T04:35:55.107Z,10.40
2022-11-28T04:38:29.870Z,9.80
2022-11-28T04:41:06.608Z,10.00
2022-11-28T04:43:39.240Z,10.00
2022-11-28T04:46:14.468Z,10.30
2022-11-28T04:48:45.868Z,10.20
2022-11-28T04:51:21.025Z,10.40
2022-11-28T04:54:02.538Z,10.40
2022-11-28T04:56:39.499Z,10.10
2022-11-28T04:59:08.390Z,10.30
2022-11-28T05:01:38.107Z,10.30
2022-11-28T05:04:07.785Z,9.90
2022-11-28T05:06:39.687Z,10.10
2022-11-28T05:09:12.842Z,10.20
2022-11-28T05:11:41.220Z,10.50
2022-11-28T05:14:10.012Z,10.60
2022-11-28T05:16:44.851Z,10.60
2022-11-28T05:19:13.046Z,10.90
2022-11-28T05:21:43.607Z,11.20
2022-11-28T05:24:14.398Z,11.00
2022-11-28T05:26:42.609Z,11.00
2022-11-28T05:29:10.644Z,11.20
2022-11-28T05:31:41.750Z,11.20
2022-11-28T05:34:12.745Z,11.20
2022-11-28T05:36:43.828Z,11.50
2022-11-28T05:39:13.261Z,11.50
2022-11-28T05:41:42.806Z,11.30
2022-11-28T05:44:11.261Z,11.10
2022-11-28T05:46:41.989Z,11.10
2022-11-28T05:49:10.687Z,10.60
2022-11-28T05:51:38.658Z,10.80
2022-11-28T05:54:09.993Z,10.70
2022-11-28T05:56:42.506Z,10.90
2022-11-28T05:59:11.029Z,10.80
2022-11-28T06:01:39.483Z,10.90
2022-11-28T06:04:07.684Z,10.60
2022-11-28T06:06:37.256Z,10.90
2022-11-28T06:09:07.401Z,10.30
2022-11-28T06:11:36.597Z,10.00
2022-11-28T06:14:06.381Z,10.20
2022-11-28T06:16:34.693Z,10.30
2022-11-28T06:19:04.394Z,10.60
2022-11-28T06:21:34.534Z,10.70
2022-11-28T06:24:02.977Z,10.90
2022-11-28T06:26:31.617Z,10.60
2022-11-28T06:28:59.593Z,10.40
2022-11-28T06:31:32.933Z,10.40
2022-11-28T06:34:05.006Z,10.50
2022-11-28T06:36:33.245Z,10.40
2022-11-28T06:39:03.541Z,10.50
2022-11-28T06:41:32.411Z,10.70
2022-11-28T06:44:00.386Z,10.90
2022-11-28T06:46:29.832Z,10.90
2022-11-28T06:48:58.970Z,11.10
2022-11-28T06:51:27.045Z,10.90
2022-11-28T06:53:55.529Z,11.10
2022-11-28T06:56:31.710Z,11.30
2022-11-28T06:59:00.976Z,11.40
2022-11-28T07:01:34.770Z,11.30
2022-11-28T07:04:03.085Z,10.90
2022-11-28T07:06:31.241Z,10.70
2022-11-28T07:09:02.572Z,10.50
2022-11-28T07:11:33.298Z,10.00
2022-11-28T07:14:03.629Z,9.60
2022-11-28T07:16:34.682Z,10.10
2022-11-28T07:19:03.791Z,10.10
2022-11-28T07:21:34.857Z,10.30
2022-11-28T07:24:04.548Z,10.40
2022-11-28T07:26:32.631Z,10.50
2022-11-28T07:29:00.719Z,10.70
2022-11-28T07:31:32.401Z,11.00
2022-11-28T07:34:04.134Z,10.70
2022-11-28T07:36:41.560Z,10.80
2022-11-28T07:39:12.762Z,10.90
2022-11-28T07:41:49.430Z,10.40
2022-11-28T07:44:18.087Z,10.30
2022-11-28T07:46:47.659Z,10.60
2022-11-28T07:49:19.263Z,10.90
2022-11-28T07:51:47.697Z,10.90
2022-11-28T07:54:15.708Z,10.60
2022-11-28T07:57:12.800Z,10.50
2022-11-28T07:59:32.933Z,10.50
2022-11-28T08:02:01.192Z,10.60
2022-11-28T08:04:31.544Z,10.70
2022-11-28T08:07:00.483Z,10.80
2022-11-28T08:09:30.992Z,10.90
2022-11-28T08:14:38.335Z,10.50
2022-11-28T08:17:06.979Z,10.70
2022-11-28T08:19:38.966Z,10.70
2022-11-28T08:22:07.427Z,10.60
2022-11-28T08:24:37.914Z,10.70
2022-11-28T08:27:06.350Z,11.00
2022-11-28T08:29:35.015Z,11.20
2022-11-28T08:32:03.060Z,11.20
2022-11-28T08:34:31.029Z,11.30
2022-11-28T08:37:02.475Z,11.20
2022-11-28T08:39:30.487Z,11.10
2022-11-28T08:41:59.561Z,10.90
2022-11-28T08:44:31.870Z,10.90
2022-11-28T08:47:00.426Z,10.80
2022-11-28T08:49:28.734Z,10.80
2022-11-28T08:51:56.766Z,10.90
2022-11-28T08:54:26.267Z,10.80
2022-11-28T08:56:57.022Z,10.70
2022-11-28T08:59:25.190Z,10.70
2022-11-28T09:01:56.065Z,10.90
2022-11-28T09:04:26.991Z,10.80
2022-11-28T09:06:56.993Z,10.50
2022-11-28T09:09:31.473Z,10.80
2022-11-28T09:12:01.431Z,11.10
2022-11-28T09:14:29.506Z,10.90
2022-11-28T09:16:57.613Z,10.90
2022-11-28T09:19:25.685Z,10.60
2022-11-28T09:21:57.644Z,10.70
2022-11-28T09:24:27.504Z,10.60
2022-11-28T09:26:56.004Z,10.40
2022-11-28T09:29:24.021Z,10.40
2022-11-28T09:31:52.090Z,10.10
2022-11-28T09:34:21.322Z,9.80
2022-11-28T09:36:52.315Z,10.20
2022-11-28T09:39:20.940Z,10.50
2022-11-28T09:42:01.990Z,10.90
2022-11-28T09:44:40.965Z,10.80
2022-11-28T09:47:17.082Z,10.90
2022-11-28T09:49:50.960Z,11.00
2022-11-28T09:52:39.451Z,11.00
2022-11-28T09:55:19.584Z,11.10
2022-11-28T09:57:51.237Z,11.20
2022-11-28T10:00:23.146Z,10.70
2022-11-28T10:03:14.959Z,10.60
2022-11-28T10:05:54.450Z,10.80
2022-11-28T10:08:32.788Z,11.10
2022-11-28T10:11:05.410Z,11.20
2022-11-28T10:14:07.196Z,11.10
2022-11-28T10:16:52.913Z,11.40
2022-11-28T10:19:53.417Z,11.30
2022-11-28T10:22:25.480Z,10.70
2022-11-28T10:24:57.424Z,10.60
2022-11-28T10:27:35.038Z,11.00
2022-11-28T10:30:11.113Z,11.10
2022-11-28T10:32:43.406Z,10.90
2022-11-28T10:35:28.279Z,10.90
2022-11-28T10:37:59.146Z,10.70
2022-11-28T10:40:36.936Z,10.30
2022-11-28T10:43:13.593Z,10.30
2022-11-28T10:45:53.399Z,10.40
2022-11-28T10:48:40.335Z,10.50
2022-11-28T10:51:31.109Z,10.50
2022-11-28T10:54:10.547Z,10.50
2022-11-28T10:56:55.734Z,10.50
2022-11-28T10:59:43.195Z,10.50
2022-11-28T11:02:23.200Z,10.70
2022-11-28T11:04:51.271Z,10.70
2022-11-28T11:07:29.539Z,10.60
2022-11-28T11:10:01.409Z,10.20
2022-11-28T11:12:35.351Z,10.60
2022-11-28T11:15:17.793Z,10.90
2022-11-28T11:17:47.846Z,11.10
2022-11-28T11:20:28.688Z,11.00
2022-11-28T11:23:00.733Z,11.10
2022-11-28T11:25:30.228Z,10.40
2022-11-28T11:28:00.935Z,10.80
2022-11-28T11:30:31.869Z,11.00
2022-11-28T11:33:10.497Z,10.80
2022-11-28T11:35:45.872Z,10.80
2022-11-28T11:38:19.762Z,11.00
2022-11-28T11:40:48.763Z,10.80
2022-11-28T11:43:27.711Z,10.90
2022-11-28T11:46:07.833Z,10.90
2022-11-28T11:48:39.207Z,10.80
2022-11-28T11:51:08.217Z,10.90
2022-11-28T11:53:42.007Z,10.90
2022-11-28T11:56:17.914Z,11.00
2022-11-28T11:58:49.613Z,11.20
2022-11-28T12:01:21.825Z,11.30
2022-11-28T12:03:56.645Z,11.00
2022-11-28T12:06:30.080Z,11.00
2022-11-28T12:09:09.596Z,10.90
2022-11-28T12:11:46.695Z,10.80
2022-11-28T12:14:28.401Z,11.10
2022-11-28T12:17:46.967Z,11.10
2022-11-28T12:20:35.787Z,11.30
2022-11-28T12:23:17.215Z,11.50
2022-11-28T12:25:51.332Z,11.50
2022-11-28T12:28:28.635Z,11.50
2022-11-28T12:31:10.761Z,11.50
2022-11-28T12:33:48.554Z,11.40
2022-11-28T12:36:27.812Z,11.50
2022-11-28T12:39:18.259Z,11.40
2022-11-28T12:42:23.567Z,11.20
2022-11-28T12:45:16.430Z,11.10
2022-11-28T12:47:52.927Z,11.00
2022-11-28T12:50:31.671Z,11.10
2022-11-28T12:53:23.330Z,11.50
2022-11-28T12:55:59.860Z,11.60
2022-11-28T12:58:35.002Z,11.50
2022-11-28T13:01:24.244Z,11.20
2022-11-28T13:04:06.186Z,10.70
2022-11-28T13:06:43.644Z,11.20
2022-11-28T13:09:28.668Z,11.60
2022-11-28T13:12:08.406Z,11.70
2022-11-28T13:14:49.168Z,11.70
2022-11-28T13:17:35.757Z,11.60
2022-11-28T13:20:17.813Z,11.30
2022-11-28T13:23:03.580Z,11.30
2022-11-28T13:25:41.252Z,11.40
2022-11-28T13:28:18.662Z,11.40
2022-11-28T13:30:51.187Z,11.30
2022-11-28T13:33:53.777Z,11.20
2022-11-28T13:39:35.222Z,11.40
2022-11-28T13:45:26.715Z,11.20
2022-11-28T13:48:00.807Z,11.60
2022-11-28T13:51:06.856Z,11.80
2022-11-28T13:53:35.697Z,11.80
2022-11-28T13:56:25.001Z,11.80
2022-11-28T13:58:56.891Z,11.70
2022-11-28T14:01:27.757Z,11.60
2022-11-28T14:04:08.522Z,11.50
2022-11-28T14:06:45.630Z,11.60
2022-11-28T14:09:30.697Z,11.70
2022-11-28T14:12:20.675Z,11.80
2022-11-28T14:15:22.926Z,11.80
2022-11-28T14:18:24.722Z,12.00
2022-11-28T14:20:59.645Z,11.90
2022-11-28T14:23:35.344Z,11.80
2022-11-28T14:26:13.123Z,11.90
2022-11-28T14:28:45.846Z,12.00
2022-11-28T14:31:30.612Z,11.90
2022-11-28T14:34:03.085Z,11.90
2022-11-28T14:36:33.923Z,12.10
2022-11-28T14:39:34.246Z,12.10
2022-11-28T14:45:45.701Z,11.90
2022-11-28T14:48:30.143Z,12.00
2022-11-28T14:51:02.052Z,11.90
2022-11-28T14:53:46.160Z,11.70
2022-11-28T14:56:27.467Z,11.40
2022-11-28T14:59:03.412Z,11.50
2022-11-28T15:01:56.255Z,11.40
2022-11-28T15:04:43.114Z,11.60
2022-11-28T15:07:25.020Z,11.50
2022-11-28T15:10:07.543Z,11.40
2022-11-28T15:12:54.793Z,11.40
2022-11-28T15:15:24.251Z,11.50
2022-11-28T15:17:54.993Z,11.60
2022-11-28T15:20:45.058Z,11.50
2022-11-28T15:23:23.882Z,11.50
2022-11-28T15:25:56.634Z,11.50
2022-11-28T15:28:28.169Z,11.60
2022-11-28T15:31:00.250Z,11.30
2022-11-28T15:33:30.451Z,11.50
2022-11-28T15:36:10.559Z,11.40
2022-11-28T15:38:49.131Z,11.40
2022-11-28T15:41:21.852Z,11.60
2022-11-28T15:43:50.882Z,11.60
2022-11-28T15:46:21.697Z,11.60
2022-11-28T15:48:51.095Z,11.40
2022-11-28T15:51:28.396Z,11.60
2022-11-28T15:53:56.621Z,11.00
2022-11-28T15:56:24.942Z,11.10
2022-11-28T15:58:56.838Z,11.30
2022-11-28T16:01:26.405Z,11.40
2022-11-28T16:04:00.035Z,11.40
2022-11-28T16:06:33.946Z,11.30
2022-11-28T16:09:05.540Z,11.50
2022-11-28T16:11:35.894Z,11.60
2022-11-28T16:14:10.132Z,11.30
2022-11-28T16:16:39.807Z,11.30
2022-11-28T16:19:20.258Z,11.40
2022-11-28T16:21:54.606Z,11.70
2022-11-28T16:24:32.211Z,11.70
2022-11-28T16:27:08.198Z,11.80
2022-11-28T16:29:37.861Z,11.90
2022-11-28T16:32:10.394Z,11.90
2022-11-28T16:34:47.162Z,11.90
2022-11-28T16:37:23.818Z,12.00
2022-11-28T16:40:09.972Z,11.70
2022-11-28T16:42:39.564Z,11.80
2022-11-28T16:45:10.758Z,11.90
2022-11-28T16:47:39.775Z,11.90
2022-11-28T16:50:21.312Z,11.80
2022-11-28T16:52:53.307Z,11.80
2022-11-28T16:55:46.052Z,11.80
2022-11-28T16:58:21.738Z,11.80
2022-11-28T17:01:03.321Z,11.80
2022-11-28T17:03:49.921Z,12.00
2022-11-28T17:06:24.534Z,12.10
2022-11-28T17:09:00.175Z,11.90
2022-11-28T17:11:31.669Z,12.00
2022-11-28T17:14:02.425Z,12.10
2022-11-28T17:16:33.272Z,12.10
2022-11-28T17:19:01.919Z,12.10
2022-11-28T17:21:34.096Z,11.90
2022-11-28T17:24:06.536Z,12.00
2022-11-28T17:26:34.570Z,12.00
2022-11-28T17:29:02.686Z,12.00
2022-11-28T17:31:31.853Z,11.90
2022-11-28T17:33:59.844Z,12.00
2022-11-28T17:36:28.683Z,11.70
2022-11-28T17:39:00.975Z,11.90
2022-11-28T17:41:35.703Z,12.00
2022-11-28T17:44:04.690Z,11.90
2022-11-28T17:46:33.011Z,11.70
2022-11-28T17:49:04.208Z,11.80
2022-11-28T17:51:32.443Z,11.60
2022-11-28T17:54:11.662Z,11.30
2022-11-28T17:56:41.067Z,11.20
2022-11-28T17:59:10.877Z,11.40
2022-11-28T18:01:39.988Z,11.40
2022-11-28T18:04:08.622Z,11.30
2022-11-28T18:06:40.434Z,11.30
2022-11-28T18:09:12.017Z,11.40
2022-11-28T18:11:42.933Z,11.40
2022-11-28T18:14:11.835Z,11.50
2022-11-28T18:16:43.021Z,11.60
2022-11-28T18:19:14.048Z,11.20
2022-11-28T18:21:43.399Z,11.40
2022-11-28T18:24:11.441Z,11.40
2022-11-28T18:26:40.409Z,11.50
2022-11-28T18:29:10.860Z,11.40
2022-11-28T18:31:41.307Z,11.50
2022-11-28T18:34:10.675Z,11.60
2022-11-28T18:36:41.772Z,11.40
2022-11-28T18:39:14.050Z,11.10
2022-11-28T18:41:42.447Z,10.70
2022-11-28T18:44:13.507Z,10.70
2022-11-28T18:46:41.667Z,10.70
2022-11-28T18:49:16.530Z,10.90
2022-11-28T18:51:47.937Z,11.30
2022-11-28T18:54:21.103Z,11.10
2022-11-28T18:56:50.822Z,11.20
2022-11-28T18:59:21.304Z,11.10
2022-11-28T19:01:52.358Z,11.10
2022-11-28T19:04:20.440Z,11.10
2022-11-28T19:06:48.984Z,11.00
2022-11-28T19:09:21.082Z,10.90
2022-11-28T19:11:49.453Z,11.00
2022-11-28T19:14:21.538Z,11.10
2022-11-28T19:16:50.188Z,11.00
2022-11-28T19:19:19.293Z,10.90
2022-11-28T19:21:50.763Z,10.90
2022-11-28T19:24:21.737Z,11.10
2022-11-28T19:26:53.894Z,11.20
2022-11-28T19:29:23.881Z,11.20
2022-11-28T19:31:53.155Z,11.20
2022-11-28T19:34:21.675Z,11.40
2022-11-28T19:36:51.861Z,11.20
2022-11-28T19:39:23.133Z,11.30
2022-11-28T19:41:52.570Z,11.40
2022-11-28T19:44:22.610Z,11.50
2022-11-28T19:46:52.818Z,11.60
2022-11-28T19:49:23.697Z,11.70
2022-11-28T19:51:54.429Z,11.70
2022-11-28T19:54:22.751Z,11.90
2022-11-28T19:56:54.978Z,12.00
2022-11-28T19:59:24.163Z,11.90
2022-11-28T20:01:56.138Z,11.90
2022-11-28T20:04:25.488Z,11.80
2022-11-28T20:06:53.776Z,11.80
2022-11-28T20:09:28.588Z,12.10
2022-11-28T20:11:57.052Z,12.00
2022-11-28T20:14:26.633Z,11.80
2022-11-28T20:16:57.287Z,11.40
2022-11-28T20:19:26.962Z,11.60
2022-11-28T20:21:56.409Z,11.50
2022-11-28T20:24:27.716Z,11.40
2022-11-28T20:26:57.247Z,11.60
2022-11-28T20:29:26.691Z,11.50
2022-11-28T20:31:57.655Z,11.40
2022-11-28T20:34:27.694Z,11.50
2022-11-28T20:36:59.675Z,11.60
2022-11-28T20:39:27.685Z,11.70
2022-11-28T20:41:55.746Z,11.60
2022-11-28T20:44:24.282Z,11.60
2022-11-28T20:46:52.527Z,11.50
2022-11-28T20:49:21.982Z,11.40
2022-11-28T20:51:50.831Z,11.40
2022-11-28T20:54:19.897Z,11.60
2022-11-28T20:59:38.424Z,11.40
2022-11-28T21:02:06.676Z,11.30
2022-11-28T21:04:36.610Z,11.50
2022-11-28T21:07:07.594Z,11.60
2022-11-28T21:09:35.825Z,11.70
2022-11-28T21:12:03.986Z,11.50
2022-11-28T21:14:32.887Z,11.50
2022-11-28T21:17:01.307Z,11.70
2022-11-28T21:19:31.769Z,11.90
2022-11-28T21:22:01.569Z,11.80
2022-11-28T21:24:32.033Z,11.80
2022-11-28T21:27:00.614Z,11.80
2022-11-28T21:29:28.657Z,11.90
2022-11-28T21:31:57.107Z,12.00
2022-11-28T21:34:25.134Z,12.00
2022-11-28T21:36:55.121Z,12.10
2022-11-28T21:39:25.188Z,12.00
2022-11-28T21:41:53.464Z,12.00
2022-11-28T21:44:21.524Z,11.70
2022-11-28T21:46:50.684Z,11.70
2022-11-28T21:49:21.196Z,11.90
2022-11-28T21:51:55.982Z,11.90
2022-11-28T21:54:29.912Z,11.90
2022-11-28T21:57:00.693Z,11.90
2022-11-28T21:59:28.727Z,11.90
2022-11-28T22:01:59.424Z,11.90
2022-11-28T22:04:31.053Z,11.90
2022-11-28T22:07:01.927Z,11.90
2022-11-28T22:09:35.034Z,12.00
2022-11-28T22:12:03.308Z,12.10
2022-11-28T22:14:36.492Z,12.10
2022-11-28T22:17:05.130Z,12.00
2022-11-28T22:19:34.608Z,12.00
2022-11-28T22:22:03.231Z,11.90
2022-11-28T22:24:33.917Z,12.00
2022-11-28T22:27:01.948Z,12.10
2022-11-28T22:29:30.509Z,12.10
2022-11-28T22:31:58.864Z,12.30
2022-11-28T22:34:26.938Z,12.30
2022-11-28T22:36:55.619Z,12.30
2022-11-28T22:39:24.026Z,12.30
2022-11-28T22:41:53.400Z,12.10
2022-11-28T22:44:25.293Z,12.30
2022-11-28T22:46:54.689Z,12.30
2022-11-28T22:49:27.063Z,12.20
2022-11-28T22:51:55.193Z,12.20
2022-11-28T22:54:23.169Z,12.10
2022-11-28T22:56:55.129Z,12.10
2022-11-28T22:59:24.870Z,12.10
2022-11-28T23:01:53.075Z,12.10
2022-11-28T23:04:21.754Z,12.10
2022-11-28T23:06:50.312Z,12.00
2022-11-28T23:09:19.048Z,12.00
2022-11-28T23:11:47.075Z,12.10
2022-11-28T23:14:18.141Z,12.10
2022-11-28T23:16:46.972Z,12.20
2022-11-28T23:19:18.666Z,12.10
2022-11-28T23:21:51.649Z,12.20
2022-11-28T23:24:23.209Z,12.20
2022-11-28T23:26:59.886Z,12.30
2022-11-28T23:29:30.184Z,12.40
2022-11-28T23:31:58.993Z,12.40
2022-11-28T23:34:29.792Z,12.40
2022-11-28T23:36:57.911Z,12.50
2022-11-28T23:39:26.130Z,12.40
2022-11-28T23:42:03.751Z,12.40
2022-11-28T23:44:35.325Z,12.20
2022-11-28T23:47:04.162Z,12.10
2022-11-28T23:49:35.331Z,12.10
2022-11-28T23:52:06.567Z,12.10
2022-11-28T23:54:38.521Z,12.20
2022-11-28T23:57:06.735Z,12.30
